createdAt,value
2019-01-27T00:02:15.463Z,85.15
2019-01-27T00:04:43.986Z,85.28
2019-01-27T00:07:12.517Z,85.17
2019-01-27T00:12:14.608Z,85.36
2019-01-27T00:14:43.056Z,85.53
2019-01-27T00:17:11.486Z,85.83
2019-01-27T00:19:40.276Z,86.01
2019-01-27T00:22:08.713Z,86.29
2019-01-27T00:24:37.747Z,86.47
2019-01-27T00:27:07.453Z,86.62
2019-01-27T00:29:36.239Z,86.83
2019-01-27T00:32:05.034Z,87.12
2019-01-27T00:34:33.480Z,87.29
2019-01-27T00:37:01.921Z,87.45
2019-01-27T00:39:30.711Z,87.64
2019-01-27T00:41:59.145Z,87.71
2019-01-27T00:44:27.807Z,87.80
2019-01-27T00:46:56.248Z,87.75
2019-01-27T00:49:24.983Z,87.64
2019-01-27T00:51:53.760Z,87.41
2019-01-27T00:54:22.211Z,87.33
2019-01-27T00:56:50.644Z,87.24
2019-01-27T00:59:20.339Z,87.28
2019-01-27T01:01:48.833Z,87.07
2019-01-27T01:04:17.845Z,87.07
2019-01-27T01:06:46.280Z,87.25
2019-01-27T01:09:14.763Z,87.36
2019-01-27T01:11:43.756Z,87.37
2019-01-27T01:14:12.176Z,87.53
2019-01-27T01:16:40.952Z,87.67
2019-01-27T01:19:09.407Z,87.69
2019-01-27T01:21:37.843Z,87.81
2019-01-27T01:24:06.300Z,87.89
2019-01-27T01:26:34.765Z,87.89
2019-01-27T01:29:03.198Z,88.02
2019-01-27T01:31:31.657Z,88.03
2019-01-27T01:34:00.433Z,88.02
2019-01-27T01:36:29.144Z,87.99
2019-01-27T01:38:57.579Z,87.94
2019-01-27T01:41:26.275Z,87.86
2019-01-27T01:43:54.987Z,87.81
2019-01-27T01:46:23.683Z,87.91
2019-01-27T01:48:52.443Z,87.88
2019-01-27T01:51:20.874Z,87.75
2019-01-27T01:53:49.305Z,87.70
2019-01-27T01:56:17.768Z,87.65
2019-01-27T01:58:46.496Z,87.82
2019-01-27T02:01:14.954Z,87.89
2019-01-27T02:03:43.409Z,87.77
2019-01-27T02:06:12.036Z,87.61
2019-01-27T02:08:40.492Z,87.71
2019-01-27T02:11:09.020Z,87.75
2019-01-27T02:13:37.457Z,87.54
2019-01-27T02:16:09.755Z,87.59
2019-01-27T02:18:39.246Z,87.46
2019-01-27T02:21:08.559Z,87.37
2019-01-27T02:23:37.227Z,87.29
2019-01-27T02:26:07.697Z,87.32
2019-01-27T02:28:36.178Z,87.35
2019-01-27T02:31:04.654Z,87.43
2019-01-27T02:33:38.190Z,87.56
2019-01-27T02:36:06.910Z,87.31
2019-01-27T02:38:35.328Z,87.24
2019-01-27T02:41:03.772Z,87.28
2019-01-27T02:43:32.452Z,87.25
2019-01-27T02:46:01.249Z,87.17
2019-01-27T02:48:29.688Z,87.04
2019-01-27T02:50:58.136Z,87.24
2019-01-27T02:53:26.818Z,87.30
2019-01-27T02:55:55.877Z,87.18
2019-01-27T02:58:24.569Z,87.24
2019-01-27T03:00:53.289Z,87.23
2019-01-27T03:03:21.730Z,87.31
2019-01-27T03:06:05.565Z,87.27
2019-01-27T03:08:53.309Z,87.38
2019-01-27T03:11:21.749Z,87.56
2019-01-27T03:13:50.452Z,87.53
2019-01-27T03:16:19.240Z,87.70
2019-01-27T03:18:47.713Z,87.84
2019-01-27T03:21:16.274Z,88.05
2019-01-27T03:23:44.695Z,88.08
2019-01-27T03:26:13.142Z,88.13
2019-01-27T03:28:41.643Z,88.17
2019-01-27T03:31:10.069Z,88.26
2019-01-27T03:33:38.517Z,88.22
2019-01-27T03:36:06.968Z,88.35
2019-01-27T03:38:35.414Z,88.35
2019-01-27T03:41:03.854Z,88.40
2019-01-27T03:43:32.803Z,88.37
2019-01-27T03:46:01.550Z,88.49
2019-01-27T03:48:30.145Z,88.59
2019-01-27T03:50:58.559Z,88.64
2019-01-27T03:53:27.279Z,88.46
2019-01-27T03:55:56.209Z,88.41
2019-01-27T03:58:24.679Z,88.32
2019-01-27T04:00:53.100Z,88.44
2019-01-27T04:03:21.529Z,88.34
2019-01-27T04:05:49.961Z,88.46
2019-01-27T04:08:18.416Z,88.37
2019-01-27T04:10:47.268Z,88.34
2019-01-27T04:13:16.033Z,88.23
2019-01-27T04:15:44.541Z,88.41
2019-01-27T04:18:13.025Z,88.50
2019-01-27T04:20:42.041Z,88.51
2019-01-27T04:23:11.150Z,88.42
2019-01-27T04:25:42.449Z,88.51
2019-01-27T04:28:11.567Z,88.57
2019-01-27T04:30:39.949Z,88.72
2019-01-27T04:33:08.409Z,88.82
2019-01-27T04:35:37.191Z,88.72
2019-01-27T04:38:05.939Z,88.76
2019-01-27T04:40:34.719Z,88.79
2019-01-27T04:43:03.150Z,88.86
2019-01-27T04:45:36.505Z,88.93
2019-01-27T04:48:08.337Z,88.94
2019-01-27T04:50:36.685Z,88.94
2019-01-27T04:53:05.862Z,88.87
2019-01-27T04:55:34.950Z,88.80
2019-01-27T04:58:03.386Z,88.76
2019-01-27T05:00:31.848Z,88.71
2019-01-27T05:03:06.910Z,88.69
2019-01-27T05:05:35.370Z,88.75
2019-01-27T05:08:04.128Z,88.80
2019-01-27T05:10:32.585Z,88.76
2019-01-27T05:13:01.013Z,88.68
2019-01-27T05:15:30.287Z,88.62
2019-01-27T05:17:58.708Z,88.53
2019-01-27T05:20:27.150Z,88.50
2019-01-27T05:22:55.586Z,88.29
2019-01-27T05:27:57.641Z,88.20
2019-01-27T05:30:27.375Z,88.19
2019-01-27T05:32:56.090Z,88.13
2019-01-27T05:35:24.851Z,88.16
2019-01-27T05:37:53.292Z,88.11
2019-01-27T05:40:21.828Z,87.89
2019-01-27T05:42:50.547Z,87.98
2019-01-27T05:45:19.002Z,88.01
2019-01-27T05:47:47.440Z,87.99
2019-01-27T05:50:15.901Z,88.18
2019-01-27T05:52:44.383Z,88.30
2019-01-27T05:55:13.890Z,88.46
2019-01-27T05:57:42.318Z,88.55
2019-01-27T06:00:17.150Z,88.41
2019-01-27T06:02:45.573Z,88.09
2019-01-27T06:05:14.009Z,87.95
2019-01-27T06:07:42.438Z,88.05
2019-01-27T06:10:11.633Z,87.74
2019-01-27T06:12:40.411Z,87.75
2019-01-27T06:15:10.506Z,87.50
2019-01-27T06:17:38.925Z,87.48
2019-01-27T06:20:09.342Z,87.41
2019-01-27T06:22:37.777Z,87.39
2019-01-27T06:25:08.307Z,87.34
2019-01-27T06:27:37.010Z,87.10
2019-01-27T06:30:08.437Z,86.80
2019-01-27T06:32:46.685Z,86.88
2019-01-27T06:35:15.166Z,87.07
2019-01-27T06:37:44.140Z,87.00
2019-01-27T06:40:12.584Z,87.15
2019-01-27T06:42:41.085Z,86.95
2019-01-27T06:45:09.810Z,86.99
2019-01-27T06:47:38.234Z,87.03
2019-01-27T06:50:07.591Z,87.04
2019-01-27T06:52:36.332Z,87.04
2019-01-27T06:55:06.008Z,87.04
2019-01-27T06:57:34.434Z,86.82
2019-01-27T07:00:30.787Z,87.02
2019-01-27T07:03:07.057Z,87.07
2019-01-27T07:05:56.085Z,87.35
2019-01-27T07:08:45.376Z,87.28
2019-01-27T07:11:31.745Z,87.24
2019-01-27T07:14:17.385Z,87.09
2019-01-27T07:17:10.714Z,87.44
2019-01-27T07:20:02.637Z,87.62
2019-01-27T07:22:50.588Z,87.75
2019-01-27T07:25:40.601Z,87.76
2019-01-27T07:28:26.970Z,87.64
2019-01-27T07:31:20.951Z,87.72
2019-01-27T07:34:00.823Z,87.84
2019-01-27T07:36:57.355Z,87.79
2019-01-27T07:39:30.661Z,87.93
2019-01-27T07:42:27.580Z,88.12
2019-01-27T07:45:02.637Z,88.29
2019-01-27T07:47:49.247Z,88.40
2019-01-27T07:50:36.785Z,88.21
2019-01-27T07:53:24.186Z,88.22
2019-01-27T07:56:04.366Z,88.33
2019-01-27T07:58:38.048Z,88.42
2019-01-27T08:01:18.728Z,88.66
2019-01-27T08:03:53.337Z,88.82
2019-01-27T08:06:33.711Z,88.95
2019-01-27T08:09:21.203Z,89.04
2019-01-27T08:12:01.389Z,89.08
2019-01-27T08:14:49.722Z,89.14
2019-01-27T08:17:34.115Z,89.15
2019-01-27T08:20:12.900Z,89.12
2019-01-27T08:23:03.206Z,89.12
2019-01-27T08:25:36.696Z,89.10
2019-01-27T08:28:18.203Z,89.16
2019-01-27T08:31:08.790Z,89.22
2019-01-27T08:33:49.546Z,89.29
2019-01-27T08:36:37.632Z,89.29
2019-01-27T08:39:33.251Z,89.20
2019-01-27T08:42:26.735Z,88.93
2019-01-27T08:45:00.898Z,88.64
2019-01-27T08:47:29.626Z,87.79
2019-01-27T08:49:58.056Z,87.07
2019-01-27T08:52:26.474Z,86.33
2019-01-27T08:54:55.468Z,85.50
2019-01-27T08:57:24.561Z,84.38
2019-01-27T08:59:53.403Z,83.76
2019-01-27T09:02:39.373Z,84.53
2019-01-27T09:05:28.624Z,85.78
2019-01-27T09:08:07.408Z,86.58
2019-01-27T09:10:53.504Z,86.96
2019-01-27T09:13:28.905Z,87.57
2019-01-27T09:16:25.178Z,87.85
2019-01-27T09:19:12.663Z,87.99
2019-01-27T09:21:58.978Z,88.11
2019-01-27T09:24:46.444Z,87.89
2019-01-27T09:27:24.625Z,87.82
2019-01-27T09:30:14.939Z,87.85
2019-01-27T09:33:02.677Z,88.06
2019-01-27T09:35:40.843Z,88.15
2019-01-27T09:38:23.670Z,88.41
2019-01-27T09:41:09.874Z,88.57
2019-01-27T09:43:57.680Z,88.76
2019-01-27T09:46:43.874Z,88.86
2019-01-27T09:49:22.728Z,88.73
2019-01-27T09:52:01.124Z,88.60
2019-01-27T09:54:39.965Z,88.52
2019-01-27T09:57:14.474Z,88.41
2019-01-27T10:00:03.651Z,88.33
2019-01-27T10:03:00.370Z,88.04
2019-01-27T10:05:46.374Z,88.08
2019-01-27T10:08:25.521Z,88.00
2019-01-27T10:11:03.104Z,87.82
2019-01-27T10:13:49.567Z,87.99
2019-01-27T10:16:25.773Z,87.75
2019-01-27T10:19:07.765Z,87.81
2019-01-27T10:21:54.063Z,87.92
2019-01-27T10:24:40.777Z,87.78
2019-01-27T10:27:18.452Z,87.97
2019-01-27T10:30:02.654Z,88.03
2019-01-27T10:32:48.931Z,88.23
2019-01-27T10:35:35.020Z,88.19
2019-01-27T10:38:08.708Z,88.26
2019-01-27T10:40:41.083Z,88.33
2019-01-27T10:43:41.077Z,88.31
2019-01-27T10:46:18.380Z,88.29
2019-01-27T10:49:06.740Z,88.27
2019-01-27T10:51:59.058Z,87.95
2019-01-27T10:55:04.828Z,87.75
2019-01-27T10:57:43.632Z,87.58
2019-01-27T11:00:26.482Z,87.84
2019-01-27T11:03:10.612Z,87.78
2019-01-27T11:06:01.173Z,87.56
2019-01-27T11:08:53.144Z,88.05
2019-01-27T11:11:33.922Z,87.28
2019-01-27T11:14:20.495Z,87.13
2019-01-27T11:17:06.920Z,86.66
2019-01-27T11:19:53.269Z,86.93
2019-01-27T11:22:49.888Z,87.06
2019-01-27T11:25:37.354Z,87.08
2019-01-27T11:28:13.445Z,87.20
2019-01-27T11:30:55.623Z,87.27
2019-01-27T11:33:37.447Z,86.82
2019-01-27T11:36:31.258Z,86.90
2019-01-27T11:39:12.375Z,86.92
2019-01-27T11:42:03.071Z,86.54
2019-01-27T11:44:49.716Z,86.17
2019-01-27T11:47:27.146Z,86.24
2019-01-27T11:50:11.624Z,86.37
2019-01-27T11:52:43.357Z,86.71
2019-01-27T11:55:11.839Z,85.95
2019-01-27T11:57:40.300Z,85.60
2019-01-27T12:00:12.262Z,85.12
2019-01-27T12:02:46.533Z,85.67
2019-01-27T12:05:11.351Z,85.40
2019-01-27T12:07:39.775Z,85.49
2019-01-27T12:10:11.793Z,85.43
2019-01-27T12:12:40.816Z,85.87
2019-01-27T12:15:12.341Z,85.39
2019-01-27T12:17:41.100Z,85.54
2019-01-27T12:20:09.838Z,85.68
2019-01-27T12:22:38.584Z,85.21
2019-01-27T12:25:08.865Z,85.10
2019-01-27T12:27:37.552Z,85.33
2019-01-27T12:30:08.539Z,85.02
2019-01-27T12:32:38.386Z,86.14
2019-01-27T12:35:07.734Z,86.24
2019-01-27T12:37:36.169Z,85.72
2019-01-27T12:40:05.972Z,86.40
2019-01-27T12:42:34.405Z,86.50
2019-01-27T12:45:02.834Z,86.56
2019-01-27T12:47:31.291Z,86.71
2019-01-27T12:49:59.728Z,86.61
2019-01-27T12:52:29.013Z,86.09
2019-01-27T12:54:57.700Z,86.24
2019-01-27T12:57:26.124Z,86.05
2019-01-27T12:59:55.101Z,86.36
2019-01-27T13:02:23.534Z,86.23
2019-01-27T13:04:52.065Z,86.20
2019-01-27T13:07:20.499Z,86.28
2019-01-27T13:09:49.023Z,85.73
2019-01-27T13:12:17.541Z,86.16
2019-01-27T13:14:46.305Z,86.33
2019-01-27T13:17:14.756Z,86.05
2019-01-27T13:19:43.740Z,86.36
2019-01-27T13:22:12.546Z,86.72
2019-01-27T13:24:41.032Z,87.14
2019-01-27T13:27:09.468Z,87.24
2019-01-27T13:29:37.894Z,87.39
2019-01-27T13:32:06.328Z,87.52
2019-01-27T13:34:35.324Z,87.52
2019-01-27T13:37:03.787Z,87.67
2019-01-27T13:39:32.208Z,87.39
2019-01-27T13:42:01.031Z,87.25
2019-01-27T13:44:29.459Z,87.23
2019-01-27T13:46:58.252Z,87.33
2019-01-27T13:49:26.869Z,87.56
2019-01-27T13:51:55.585Z,87.40
2019-01-27T13:54:24.026Z,87.68
2019-01-27T13:56:53.143Z,87.81
2019-01-27T13:59:22.806Z,88.04
2019-01-27T14:01:51.250Z,87.83
2019-01-27T14:04:20.028Z,87.73
2019-01-27T14:06:48.444Z,87.86
2019-01-27T14:09:16.922Z,87.94
2019-01-27T14:11:45.757Z,88.01
2019-01-27T14:14:14.522Z,87.98
2019-01-27T14:16:42.995Z,87.86
2019-01-27T14:19:11.604Z,87.94
2019-01-27T14:21:40.699Z,87.62
2019-01-27T14:24:09.136Z,87.65
2019-01-27T14:29:25.096Z,87.79
2019-01-27T14:31:53.723Z,87.93
2019-01-27T14:34:22.468Z,88.05
2019-01-27T14:36:51.599Z,88.20
2019-01-27T14:39:20.105Z,88.05
2019-01-27T14:41:48.515Z,88.07
2019-01-27T14:44:16.958Z,88.13
2019-01-27T14:46:45.372Z,88.26
2019-01-27T14:49:13.823Z,88.35
2019-01-27T14:51:42.243Z,88.45
2019-01-27T14:54:11.118Z,88.51
2019-01-27T14:56:39.559Z,88.57
2019-01-27T14:59:07.998Z,88.65
2019-01-27T15:01:36.421Z,88.51
2019-01-27T15:04:04.855Z,88.68
2019-01-27T15:06:33.276Z,88.79
2019-01-27T15:09:01.828Z,88.86
2019-01-27T15:11:30.308Z,88.97
2019-01-27T15:13:59.102Z,89.00
2019-01-27T15:16:27.982Z,89.07
2019-01-27T15:18:56.732Z,89.13
2019-01-27T15:21:27.084Z,89.20
2019-01-27T15:23:55.645Z,89.25
2019-01-27T15:26:24.158Z,89.26
2019-01-27T15:28:52.816Z,89.23
2019-01-27T15:31:21.248Z,89.19
2019-01-27T15:33:50.272Z,89.25
2019-01-27T15:36:19.060Z,89.26
2019-01-27T15:38:48.777Z,89.17
2019-01-27T15:41:17.202Z,89.05
2019-01-27T15:43:48.735Z,88.93
2019-01-27T15:46:15.769Z,88.91
2019-01-27T15:48:44.223Z,88.91
2019-01-27T15:51:12.754Z,89.04
2019-01-27T15:53:41.273Z,89.08
2019-01-27T15:56:10.076Z,89.04
2019-01-27T15:58:38.762Z,88.89
2019-01-27T16:01:07.786Z,88.37
2019-01-27T16:03:36.509Z,88.20
2019-01-27T16:06:04.956Z,88.04
2019-01-27T16:08:33.364Z,88.14
2019-01-27T16:11:01.822Z,88.43
2019-01-27T16:13:30.246Z,88.86
2019-01-27T16:15:58.818Z,89.19
2019-01-27T16:18:28.137Z,89.31
2019-01-27T16:20:58.934Z,89.17
2019-01-27T16:23:46.281Z,89.30
2019-01-27T16:26:17.608Z,89.16
2019-01-27T16:28:46.409Z,89.02
2019-01-27T16:31:46.264Z,89.14
2019-01-27T16:34:39.867Z,89.21
2019-01-27T16:37:08.679Z,89.09
2019-01-27T16:39:37.876Z,89.07
2019-01-27T16:42:06.320Z,89.07
2019-01-27T16:44:34.770Z,89.16
2019-01-27T16:47:03.552Z,89.19
2019-01-27T16:49:32.006Z,89.00
2019-01-27T16:52:00.458Z,89.10
2019-01-27T16:54:28.894Z,89.13
2019-01-27T16:56:57.361Z,89.12
2019-01-27T16:59:26.297Z,89.03
2019-01-27T17:01:58.948Z,88.70
2019-01-27T17:04:25.557Z,88.62
2019-01-27T17:07:01.103Z,88.72
2019-01-27T17:09:32.455Z,88.86
2019-01-27T17:12:01.336Z,89.00
2019-01-27T17:14:36.817Z,88.97
2019-01-27T17:17:08.069Z,88.77
2019-01-27T17:19:36.895Z,88.68
2019-01-27T17:22:06.156Z,88.44
2019-01-27T17:24:34.602Z,88.40
2019-01-27T17:27:03.066Z,88.44
2019-01-27T17:29:31.477Z,88.16
2019-01-27T17:32:00.238Z,88.51
2019-01-27T17:34:29.034Z,88.34
2019-01-27T17:36:57.492Z,88.47
2019-01-27T17:39:26.164Z,88.49
2019-01-27T17:41:54.936Z,88.47
2019-01-27T17:44:23.374Z,88.47
2019-01-27T17:46:52.116Z,88.62
2019-01-27T17:49:20.630Z,88.67
2019-01-27T17:51:49.351Z,88.78
2019-01-27T17:54:17.798Z,88.71
2019-01-27T17:56:52.013Z,88.87
2019-01-27T17:59:37.166Z,88.88
2019-01-27T18:02:19.805Z,88.63
2019-01-27T18:05:05.550Z,88.31
2019-01-27T18:07:50.452Z,87.62
2019-01-27T18:10:31.353Z,87.63
2019-01-27T18:13:05.018Z,88.16
2019-01-27T18:15:34.603Z,88.41
2019-01-27T18:18:03.071Z,88.80
2019-01-27T18:20:31.758Z,89.08
2019-01-27T18:23:01.939Z,89.17
2019-01-27T18:25:30.855Z,89.01
2019-01-27T18:27:59.286Z,88.98
2019-01-27T18:30:27.721Z,88.77
2019-01-27T18:32:56.157Z,87.74
2019-01-27T18:35:26.054Z,88.08
2019-01-27T18:37:54.508Z,88.42
2019-01-27T18:40:23.171Z,88.25
2019-01-27T18:42:51.626Z,87.97
2019-01-27T18:45:20.091Z,88.24
2019-01-27T18:47:48.610Z,88.41
2019-01-27T18:50:18.359Z,88.27
2019-01-27T18:52:48.302Z,88.56
2019-01-27T18:55:40.286Z,88.57
2019-01-27T18:58:30.467Z,88.52
2019-01-27T19:01:15.761Z,88.67
2019-01-27T19:04:00.309Z,88.68
2019-01-27T19:06:48.109Z,88.85
2019-01-27T19:09:26.670Z,88.91
2019-01-27T19:12:05.588Z,89.08
2019-01-27T19:14:51.838Z,89.14
2019-01-27T19:17:31.458Z,89.31
2019-01-27T19:20:09.965Z,89.37
2019-01-27T19:23:03.743Z,89.46
2019-01-27T19:25:39.035Z,89.50
2019-01-27T19:28:15.665Z,89.52
2019-01-27T19:30:52.743Z,89.56
2019-01-27T19:33:30.052Z,89.45
2019-01-27T19:36:23.561Z,89.39
2019-01-27T19:39:18.784Z,89.39
2019-01-27T19:41:55.428Z,89.40
2019-01-27T19:44:31.133Z,89.40
2019-01-27T19:47:24.461Z,89.37
2019-01-27T19:50:09.553Z,89.24
2019-01-27T19:52:47.366Z,89.33
2019-01-27T19:55:22.093Z,89.39
2019-01-27T19:58:08.502Z,89.26
2019-01-27T20:00:55.096Z,89.09
2019-01-27T20:03:41.231Z,88.95
2019-01-27T20:06:14.819Z,88.78
2019-01-27T20:09:08.351Z,88.68
2019-01-27T20:11:49.621Z,88.62
2019-01-27T20:14:35.646Z,88.28
2019-01-27T20:17:11.278Z,88.43
2019-01-27T20:19:52.054Z,88.36
2019-01-27T20:22:28.605Z,88.45
2019-01-27T20:25:28.618Z,88.55
2019-01-27T20:28:15.387Z,88.38
2019-01-27T20:31:05.382Z,88.51
2019-01-27T20:33:51.859Z,88.40
2019-01-27T20:36:32.731Z,88.57
2019-01-27T20:39:12.758Z,88.38
2019-01-27T20:41:55.379Z,88.38
2019-01-27T20:44:52.077Z,88.32
2019-01-27T20:47:46.895Z,88.26
2019-01-27T20:50:26.250Z,88.34
2019-01-27T20:53:03.526Z,88.16
2019-01-27T20:55:45.994Z,88.14
2019-01-27T20:58:21.843Z,88.09
2019-01-27T21:00:58.242Z,88.33
2019-01-27T21:03:38.921Z,88.50
2019-01-27T21:06:22.652Z,88.63
2019-01-27T21:09:05.894Z,88.75
2019-01-27T21:12:02.364Z,88.62
2019-01-27T21:14:58.824Z,88.54
2019-01-27T21:17:43.927Z,88.35
2019-01-27T21:20:15.866Z,88.38
2019-01-27T21:22:44.933Z,88.49
2019-01-27T21:25:13.791Z,88.08
2019-01-27T21:27:42.246Z,88.05
2019-01-27T21:30:12.715Z,88.13
2019-01-27T21:32:41.150Z,88.22
2019-01-27T21:35:10.146Z,87.73
2019-01-27T21:37:38.625Z,87.74
2019-01-27T21:40:12.875Z,87.70
2019-01-27T21:42:47.259Z,87.87
2019-01-27T21:45:12.136Z,87.55
2019-01-27T21:47:40.939Z,87.30
2019-01-27T21:50:17.435Z,87.56
2019-01-27T21:52:45.873Z,87.50
2019-01-27T21:55:16.734Z,87.74
2019-01-27T21:57:45.182Z,87.89
2019-01-27T22:00:20.729Z,87.80
2019-01-27T22:02:49.437Z,87.82
2019-01-27T22:05:18.520Z,87.50
2019-01-27T22:07:46.963Z,87.71
2019-01-27T22:10:15.442Z,87.67
2019-01-27T22:12:43.912Z,87.49
2019-01-27T22:15:12.402Z,87.61
2019-01-27T22:17:41.162Z,87.47
2019-01-27T22:20:11.595Z,87.61
2019-01-27T22:22:40.390Z,87.62
2019-01-27T22:25:09.847Z,87.55
2019-01-27T22:27:38.285Z,87.71
2019-01-27T22:30:10.014Z,87.69
2019-01-27T22:32:38.438Z,87.74
2019-01-27T22:35:06.964Z,87.42
2019-01-27T22:37:35.536Z,87.56
2019-01-27T22:40:04.219Z,87.56
2019-01-27T22:42:32.677Z,87.18
2019-01-27T22:45:06.806Z,87.13
2019-01-27T22:47:36.423Z,87.17
2019-01-27T22:50:06.465Z,87.13
2019-01-27T22:52:36.628Z,87.25
2019-01-27T22:55:06.158Z,87.05
2019-01-27T22:57:34.957Z,86.82
2019-01-27T23:00:03.534Z,86.60
2019-01-27T23:02:32.215Z,86.23
2019-01-27T23:05:01.181Z,86.46
2019-01-27T23:07:32.212Z,86.54
2019-01-27T23:10:00.894Z,86.67
2019-01-27T23:12:29.818Z,86.34
2019-01-27T23:14:58.533Z,86.57
2019-01-27T23:17:26.981Z,86.34
2019-01-27T23:19:55.745Z,85.41
2019-01-27T23:22:24.613Z,85.30
2019-01-27T23:24:53.388Z,85.84
2019-01-27T23:27:21.957Z,86.23
2019-01-27T23:29:50.451Z,85.85
2019-01-27T23:32:19.205Z,85.77
2019-01-27T23:34:48.028Z,85.91
2019-01-27T23:37:16.467Z,85.54
2019-01-27T23:39:45.365Z,85.95
2019-01-27T23:42:16.775Z,85.85
2019-01-27T23:44:45.407Z,85.89
2019-01-27T23:47:14.228Z,85.68
2019-01-27T23:49:42.661Z,84.55
2019-01-27T23:52:11.085Z,84.11
2019-01-27T23:54:40.455Z,84.56
2019-01-27T23:57:08.918Z,84.18
2019-01-27T23:59:37.668Z,84.09
